createdAt,value
2022-10-03T00:02:06.761Z,1.73
2022-10-03T00:05:31.187Z,1.53
2022-10-03T00:09:25.222Z,1.60
2022-10-03T00:13:16.102Z,1.53
2022-10-03T00:16:36.722Z,1.77
2022-10-03T00:19:56.887Z,2.23
2022-10-03T00:23:07.495Z,2.50
2022-10-03T00:26:38.927Z,2.00
2022-10-03T00:30:18.530Z,1.97
2022-10-03T00:33:57.681Z,2.07
2022-10-03T00:37:29.937Z,2.20
2022-10-03T00:41:26.147Z,1.90
2022-10-03T00:45:31.292Z,2.30
2022-10-03T00:49:30.544Z,2.50
2022-10-03T00:53:06.750Z,2.27
2022-10-03T00:56:57.194Z,2.13
2022-10-03T01:00:25.074Z,2.30
2022-10-03T01:03:56.825Z,2.30
2022-10-03T01:07:38.070Z,2.13
2022-10-03T01:11:06.638Z,2.20
2022-10-03T01:14:46.987Z,2.37
2022-10-03T01:22:59.782Z,2.77
2022-10-03T01:26:22.065Z,2.23
2022-10-03T01:30:10.985Z,2.30
2022-10-03T01:33:24.835Z,2.50
2022-10-03T01:36:40.443Z,2.33
2022-10-03T01:39:55.858Z,2.30
2022-10-03T01:43:21.348Z,2.30
2022-10-03T01:46:41.246Z,2.27
2022-10-03T01:49:54.518Z,2.43
2022-10-03T01:53:07.565Z,2.60
2022-10-03T01:56:19.663Z,2.57
2022-10-03T01:59:35.328Z,3.00
2022-10-03T02:02:50.233Z,2.50
2022-10-03T02:06:07.857Z,2.50
2022-10-03T02:09:26.802Z,2.00
2022-10-03T02:12:38.258Z,2.30
2022-10-03T02:15:58.154Z,2.43
2022-10-03T02:19:12.312Z,2.20
2022-10-03T02:22:31.728Z,2.23
2022-10-03T02:25:57.114Z,2.33
2022-10-03T02:29:25.624Z,2.27
2022-10-03T02:33:21.662Z,2.50
2022-10-03T02:36:55.677Z,2.40
2022-10-03T02:40:34.358Z,2.50
2022-10-03T02:44:07.661Z,2.80
2022-10-03T02:48:00.001Z,2.87
2022-10-03T02:52:00.941Z,2.93
2022-10-03T02:55:36.718Z,2.77
2022-10-03T02:59:16.346Z,2.93
2022-10-03T03:03:05.498Z,2.90
2022-10-03T03:06:57.808Z,3.00
2022-10-03T03:10:36.155Z,2.43
2022-10-03T03:14:20.151Z,2.53
2022-10-03T03:17:36.745Z,3.20
2022-10-03T03:21:00.278Z,3.10
2022-10-03T03:24:42.998Z,2.93
2022-10-03T03:28:02.779Z,3.13
2022-10-03T03:31:14.255Z,3.37
2022-10-03T03:34:29.438Z,2.90
2022-10-03T03:37:45.854Z,3.07
2022-10-03T03:41:14.274Z,3.43
2022-10-03T03:44:48.461Z,3.30
2022-10-03T03:48:16.475Z,3.10
2022-10-03T03:51:33.353Z,2.40
2022-10-03T03:55:09.511Z,2.57
2022-10-03T03:58:42.076Z,2.27
2022-10-03T04:02:11.974Z,2.10
2022-10-03T04:05:34.056Z,1.97
2022-10-03T04:09:03.423Z,2.00
2022-10-03T04:12:17.471Z,1.80
2022-10-03T04:15:59.865Z,1.97
2022-10-03T04:19:12.350Z,2.00
2022-10-03T04:22:39.724Z,2.60
2022-10-03T04:26:21.646Z,1.90
2022-10-03T04:29:43.918Z,2.17
2022-10-03T04:33:15.890Z,2.13
2022-10-03T04:36:49.113Z,2.03
2022-10-03T04:40:10.741Z,2.20
2022-10-03T04:43:24.350Z,2.47
2022-10-03T04:46:33.952Z,2.13
2022-10-03T04:49:50.324Z,2.43
2022-10-03T04:53:08.276Z,2.33
2022-10-03T04:56:33.526Z,1.80
2022-10-03T04:59:48.523Z,1.87
2022-10-03T05:03:06.508Z,1.70
2022-10-03T05:06:34.741Z,1.80
2022-10-03T05:09:51.704Z,2.30
2022-10-03T05:13:08.420Z,1.20
2022-10-03T05:16:24.908Z,1.50
2022-10-03T05:19:48.217Z,1.80
2022-10-03T05:23:06.705Z,1.80
2022-10-03T05:26:44.126Z,1.77
2022-10-03T05:30:01.261Z,1.67
2022-10-03T05:33:16.182Z,1.63
2022-10-03T05:36:34.179Z,1.50
2022-10-03T05:39:55.238Z,1.80
2022-10-03T05:43:11.446Z,1.50
2022-10-03T05:46:29.503Z,1.63
2022-10-03T05:50:00.535Z,1.73
2022-10-03T05:53:25.377Z,1.50
2022-10-03T05:56:55.857Z,1.70
2022-10-03T06:00:12.914Z,1.50
2022-10-03T06:03:54.852Z,1.40
2022-10-03T06:07:17.780Z,1.40
2022-10-03T06:10:53.637Z,1.63
2022-10-03T06:14:27.381Z,1.53
2022-10-03T06:18:14.837Z,1.87
2022-10-03T06:21:42.130Z,1.60
2022-10-03T06:25:22.154Z,1.67
2022-10-03T06:28:53.844Z,1.60
2022-10-03T06:32:30.328Z,2.20
2022-10-03T06:36:25.186Z,2.67
2022-10-03T06:40:00.447Z,2.10
2022-10-03T06:43:54.424Z,1.40
2022-10-03T06:47:18.253Z,1.57
2022-10-03T06:50:50.864Z,1.87
2022-10-03T06:54:27.980Z,2.00
2022-10-03T06:58:19.528Z,2.23
2022-10-03T07:02:03.475Z,2.30
2022-10-03T07:05:43.939Z,1.87
2022-10-03T07:09:37.346Z,2.50
2022-10-03T07:13:21.427Z,1.70
2022-10-03T07:17:14.937Z,1.53
2022-10-03T07:21:03.459Z,1.70
2022-10-03T07:24:48.699Z,1.70
2022-10-03T07:28:28.368Z,1.67
2022-10-03T07:31:50.495Z,1.53
2022-10-03T07:35:52.498Z,1.73
2022-10-03T07:39:34.263Z,1.60
2022-10-03T07:43:06.113Z,1.60
2022-10-03T07:46:38.961Z,1.73
2022-10-03T07:50:13.441Z,1.80
2022-10-03T07:54:00.902Z,1.73
2022-10-03T07:57:38.383Z,1.20
2022-10-03T08:01:03.606Z,1.40
2022-10-03T08:04:54.855Z,1.50
2022-10-03T08:08:33.809Z,1.37
2022-10-03T08:11:59.358Z,1.37
2022-10-03T08:15:14.604Z,1.60
2022-10-03T08:18:40.765Z,1.50
2022-10-03T08:22:03.537Z,1.47
2022-10-03T08:25:47.097Z,1.60
2022-10-03T08:29:30.956Z,1.87
2022-10-03T08:33:03.499Z,1.47
2022-10-03T08:36:35.953Z,1.90
2022-10-03T08:40:24.662Z,1.33
2022-10-03T08:44:13.814Z,1.43
2022-10-03T08:47:55.217Z,2.20
2022-10-03T08:51:45.435Z,2.03
2022-10-03T08:55:43.247Z,2.20
2022-10-03T08:59:33.920Z,1.80
2022-10-03T09:03:34.470Z,2.20
2022-10-03T09:07:23.834Z,2.30
2022-10-03T09:10:53.440Z,2.17
2022-10-03T09:14:35.120Z,2.20
2022-10-03T09:18:13.779Z,2.20
2022-10-03T09:21:46.133Z,1.60
2022-10-03T09:25:19.943Z,1.43
2022-10-03T09:29:09.372Z,1.57
2022-10-03T09:32:49.332Z,1.53
2022-10-03T09:36:21.327Z,1.70
2022-10-03T09:40:07.910Z,1.93
2022-10-03T09:43:57.336Z,1.80
2022-10-03T09:47:30.883Z,2.10
2022-10-03T09:51:09.453Z,1.30
2022-10-03T09:54:52.604Z,1.63
2022-10-03T09:58:39.734Z,1.83
2022-10-03T10:01:53.836Z,1.60
2022-10-03T10:05:23.333Z,1.80
2022-10-03T10:08:57.308Z,2.07
2022-10-03T10:12:56.728Z,1.53
2022-10-03T10:16:34.311Z,1.20
2022-10-03T10:20:03.335Z,1.63
2022-10-03T10:23:33.652Z,2.40
2022-10-03T10:27:10.046Z,1.50
2022-10-03T10:30:26.871Z,1.70
2022-10-03T10:34:30.578Z,1.77
2022-10-03T10:38:07.972Z,1.60
2022-10-03T10:41:56.258Z,1.73
2022-10-03T10:45:47.241Z,1.40
2022-10-03T10:49:30.813Z,1.77
2022-10-03T10:53:28.008Z,1.83
2022-10-03T10:57:10.899Z,1.70
2022-10-03T11:00:26.516Z,1.40
2022-10-03T11:04:08.513Z,1.47
2022-10-03T11:07:42.393Z,1.50
2022-10-03T11:11:06.901Z,1.57
2022-10-03T11:15:12.895Z,1.33
2022-10-03T11:19:08.184Z,1.60
2022-10-03T11:23:01.124Z,1.73
2022-10-03T11:26:39.102Z,1.50
2022-10-03T11:30:24.242Z,1.30
2022-10-03T11:34:07.978Z,1.37
2022-10-03T11:37:31.242Z,1.63
2022-10-03T11:40:56.624Z,1.33
2022-10-03T11:44:17.564Z,2.00
2022-10-03T11:47:49.187Z,2.10
2022-10-03T11:50:58.327Z,1.90
2022-10-03T11:54:30.450Z,1.70
2022-10-03T11:57:43.073Z,1.27
2022-10-03T12:00:55.932Z,1.50
2022-10-03T12:04:12.083Z,1.23
2022-10-03T12:07:56.209Z,1.47
2022-10-03T12:11:14.209Z,2.13
2022-10-03T12:14:30.360Z,1.50
2022-10-03T12:17:39.346Z,1.60
2022-10-03T12:21:08.829Z,1.70
2022-10-03T12:24:27.427Z,1.70
2022-10-03T12:27:43.393Z,1.77
2022-10-03T12:30:58.330Z,1.90
2022-10-03T12:34:18.156Z,2.13
2022-10-03T12:37:44.395Z,2.17
2022-10-03T12:40:59.520Z,2.30
2022-10-03T12:44:23.684Z,2.73
2022-10-03T12:47:56.579Z,2.50
2022-10-03T12:51:08.875Z,1.63
2022-10-03T12:54:28.310Z,1.90
2022-10-03T12:57:52.297Z,1.33
2022-10-03T13:01:06.969Z,2.30
2022-10-03T13:04:28.584Z,2.10
2022-10-03T13:07:45.907Z,1.73
2022-10-03T13:10:58.853Z,1.63
2022-10-03T13:14:19.196Z,1.70
2022-10-03T13:17:38.202Z,1.70
2022-10-03T13:21:00.091Z,1.80
2022-10-03T13:24:12.096Z,1.60
2022-10-03T13:27:33.738Z,1.40
2022-10-03T13:30:51.540Z,1.17
2022-10-03T13:34:03.432Z,1.60
2022-10-03T13:37:22.327Z,2.23
2022-10-03T13:45:07.004Z,2.20
2022-10-03T13:48:17.456Z,2.13
2022-10-03T13:51:36.250Z,2.00
2022-10-03T13:55:15.229Z,2.80
2022-10-03T13:58:39.084Z,2.93
2022-10-03T14:01:56.940Z,2.30
2022-10-03T14:05:47.891Z,2.33
2022-10-03T14:09:28.977Z,2.90
2022-10-03T14:12:56.162Z,2.10
2022-10-03T14:16:13.539Z,2.03
2022-10-03T14:19:29.414Z,1.70
2022-10-03T14:22:48.537Z,2.27
2022-10-03T14:26:05.068Z,2.20
2022-10-03T14:29:23.016Z,2.37
2022-10-03T14:32:47.184Z,2.70
2022-10-03T14:36:11.682Z,3.03
2022-10-03T14:39:36.485Z,3.17
2022-10-03T14:43:11.322Z,3.57
2022-10-03T14:46:23.045Z,3.23
2022-10-03T14:49:53.659Z,2.93
2022-10-03T14:53:03.181Z,3.97
2022-10-03T14:56:12.478Z,4.43
2022-10-03T14:59:23.408Z,3.90
2022-10-03T15:02:36.963Z,3.83
2022-10-03T15:06:03.209Z,2.90
2022-10-03T15:09:14.064Z,2.50
2022-10-03T15:12:24.759Z,2.90
2022-10-03T15:15:35.774Z,2.10
2022-10-03T15:18:55.050Z,2.50
2022-10-03T15:22:08.538Z,2.87
2022-10-03T15:25:19.279Z,2.40
2022-10-03T15:28:30.524Z,2.37
2022-10-03T15:31:39.317Z,2.27
2022-10-03T15:34:50.235Z,2.20
2022-10-03T15:37:57.900Z,2.27
2022-10-03T15:41:12.799Z,2.30
2022-10-03T15:44:24.208Z,2.00
2022-10-03T15:47:31.398Z,2.23
2022-10-03T15:55:29.999Z,1.93
2022-10-03T16:02:54.140Z,1.80
2022-10-03T16:07:13.955Z,1.77
2022-10-03T16:10:27.057Z,3.57
2022-10-03T16:17:23.543Z,3.50
2022-10-03T16:20:38.261Z,2.40
2022-10-03T16:23:46.069Z,1.97
2022-10-03T16:27:03.140Z,2.03
2022-10-03T16:30:23.848Z,3.03
2022-10-03T16:33:34.183Z,2.50
2022-10-03T16:36:46.465Z,2.60
2022-10-03T16:40:00.629Z,2.10
2022-10-03T16:43:12.588Z,2.40
2022-10-03T16:46:21.825Z,2.50
2022-10-03T16:49:53.737Z,2.40
2022-10-03T16:53:03.432Z,2.37
2022-10-03T16:56:11.376Z,2.57
2022-10-03T16:59:24.119Z,2.50
2022-10-03T17:02:33.366Z,3.10
2022-10-03T17:05:48.522Z,2.50
2022-10-03T17:08:56.518Z,2.90
2022-10-03T17:12:06.264Z,3.30
2022-10-03T17:15:23.984Z,3.00
2022-10-03T17:18:34.150Z,2.67
2022-10-03T17:21:43.582Z,2.50
2022-10-03T17:24:55.432Z,3.50
2022-10-03T17:28:03.571Z,3.47
2022-10-03T17:31:28.841Z,3.40
2022-10-03T17:34:42.537Z,2.97
2022-10-03T17:38:30.414Z,4.00
2022-10-03T17:41:41.521Z,4.00
2022-10-03T17:45:00.600Z,3.67
2022-10-03T17:48:21.679Z,2.57
2022-10-03T17:51:35.495Z,3.50
2022-10-03T17:54:42.972Z,3.63
2022-10-03T17:57:52.284Z,3.20
2022-10-03T18:01:08.488Z,3.40
2022-10-03T18:04:21.939Z,3.30
2022-10-03T18:07:31.168Z,3.00
2022-10-03T18:10:41.175Z,3.20
2022-10-03T18:13:49.735Z,3.00
2022-10-03T18:17:04.237Z,2.40
2022-10-03T18:20:28.473Z,2.60
2022-10-03T18:23:54.841Z,2.20
2022-10-03T18:27:13.628Z,2.40
2022-10-03T18:30:24.467Z,2.60
2022-10-03T18:33:33.625Z,2.73
2022-10-03T18:36:48.546Z,2.37
2022-10-03T18:39:58.085Z,2.57
2022-10-03T18:43:07.797Z,2.27
2022-10-03T18:46:19.239Z,2.60
2022-10-03T18:49:36.000Z,3.10
2022-10-03T18:52:52.835Z,2.60
2022-10-03T18:56:03.794Z,2.43
2022-10-03T18:59:17.571Z,3.00
2022-10-03T19:02:29.835Z,3.50
2022-10-03T19:05:39.431Z,2.60
2022-10-03T19:08:53.144Z,2.20
2022-10-03T19:12:08.868Z,1.80
2022-10-03T19:15:23.094Z,1.90
2022-10-03T19:18:33.996Z,1.73
2022-10-03T19:21:43.454Z,1.40
2022-10-03T19:24:58.922Z,1.10
2022-10-03T19:28:16.779Z,0.80
2022-10-03T19:31:28.268Z,1.20
2022-10-03T19:34:40.097Z,1.90
2022-10-03T19:37:49.693Z,1.97
2022-10-03T19:41:03.280Z,2.60
2022-10-03T19:44:10.817Z,2.93
2022-10-03T19:47:20.879Z,2.80
2022-10-03T19:50:31.519Z,3.40
2022-10-03T19:53:38.034Z,3.70
2022-10-03T19:56:46.639Z,3.13
2022-10-03T19:59:56.236Z,2.83
2022-10-03T20:03:21.752Z,3.50
2022-10-03T20:06:33.420Z,2.63
2022-10-03T20:09:41.874Z,2.90
2022-10-03T20:12:54.367Z,2.67
2022-10-03T20:16:01.368Z,3.23
2022-10-03T20:19:12.518Z,3.20
2022-10-03T20:22:18.994Z,2.93
2022-10-03T20:25:31.030Z,2.87
2022-10-03T20:28:56.960Z,2.97
2022-10-03T20:32:06.379Z,2.23
2022-10-03T20:35:18.063Z,2.77
2022-10-03T20:38:37.094Z,2.20
2022-10-03T20:41:56.700Z,2.70
2022-10-03T20:45:17.072Z,2.40
2022-10-03T20:48:28.581Z,2.87
2022-10-03T20:51:44.307Z,2.77
2022-10-03T20:54:52.715Z,2.70
2022-10-03T20:58:07.499Z,2.87
2022-10-03T21:01:19.735Z,3.07
2022-10-03T21:04:33.345Z,3.40
2022-10-03T21:07:44.417Z,3.10
2022-10-03T21:10:54.960Z,3.03
2022-10-03T21:14:06.438Z,2.77
2022-10-03T21:17:21.046Z,2.47
2022-10-03T21:20:34.315Z,3.20
2022-10-03T21:23:46.564Z,2.10
2022-10-03T21:26:59.552Z,2.03
2022-10-03T21:30:18.542Z,2.40
2022-10-03T21:33:34.011Z,2.70
2022-10-03T21:36:53.728Z,2.50
2022-10-03T21:40:14.275Z,2.80
2022-10-03T21:43:33.425Z,2.07
2022-10-03T21:46:46.048Z,2.30
2022-10-03T21:50:00.669Z,2.80
2022-10-03T21:53:20.764Z,2.37
2022-10-03T21:56:46.058Z,2.20
2022-10-03T22:00:09.604Z,2.70
2022-10-03T22:03:23.670Z,2.53
2022-10-03T22:06:42.221Z,2.30
2022-10-03T22:09:53.237Z,2.50
2022-10-03T22:13:03.499Z,2.80
2022-10-03T22:16:22.598Z,2.40
2022-10-03T22:19:38.987Z,2.90
2022-10-03T22:23:01.330Z,2.57
2022-10-03T22:26:18.723Z,2.93
2022-10-03T22:29:37.689Z,3.07
2022-10-03T22:32:52.625Z,2.73
2022-10-03T22:36:03.569Z,3.37
2022-10-03T22:39:17.847Z,3.07
2022-10-03T22:42:24.930Z,3.00
2022-10-03T22:45:34.714Z,3.10
2022-10-03T22:48:47.018Z,3.00
2022-10-03T22:51:56.375Z,3.37
2022-10-03T22:55:07.663Z,3.07
2022-10-03T22:58:15.304Z,2.73
2022-10-03T23:01:21.992Z,2.87
2022-10-03T23:04:43.775Z,2.90
2022-10-03T23:08:03.494Z,3.27
2022-10-03T23:11:21.519Z,3.43
2022-10-03T23:14:32.606Z,3.00
2022-10-03T23:18:09.798Z,3.37
2022-10-03T23:21:16.622Z,3.20
2022-10-03T23:24:29.716Z,3.07
2022-10-03T23:28:06.472Z,3.60
2022-10-03T23:31:53.509Z,3.10
2022-10-03T23:35:21.449Z,2.50
2022-10-03T23:39:09.734Z,3.73
2022-10-03T23:42:21.427Z,3.20
2022-10-03T23:45:30.718Z,2.50
2022-10-03T23:48:45.825Z,2.40
2022-10-03T23:51:52.497Z,2.70
2022-10-03T23:55:03.475Z,2.40
2022-10-03T23:58:22.254Z,2.47
